Apus — XUCT7 — position and weather

sailwx.info

Track history (hours):
 
Tides and Currents Weather Stations Pressure Air Temp Water Temp Dewpoint Dewpoint Depression Visibility Wind Speed Wind Dir Waves Ship Positions

Apus

Last reported at 2015-Feb-27 10:33 UTC. Time now 2015-Feb-28 19:19 UTC.
Position N 37°22' W 000°43'.

Length 93 m; draft 5.5 m.

Type: Cargo ship. MMSI: 515102000.

Date/timePositionNaut miles runAvg speedWind from/ knotsBaromVisibWave heightAir tempDewpointWater temp
2015-Feb-27 10:33N 37°22' W 000°43'1111.0
2015-Feb-27 09:33N 37°29' W 000°53'11 5.4
2015-Feb-27 07:32N 37°33' W 001°06'6 6.4
2015-Feb-27 06:32N 37°36' W 000°59'0 0.0
2015-Feb-25 05:33N 37°36' W 000°59'5 4.8
2015-Feb-25 04:29N 37°33' W 001°04'2 1.4
2015-Feb-25 03:12N 37°33' W 001°07'0 0.0
2015-Feb-25 02:25N 37°33' W 001°07'0 0.1
2015-Feb-25 01:31N 37°33' W 001°07'0 0.0
2015-Feb-25 00:19N 37°33' W 001°07'0 0.1
2015-Feb-24 23:25N 37°33' W 001°07'0 0.0
2015-Feb-24 20:31N 37°33' W 001°07'0 0.0
2015-Feb-24 19:25N 37°33' W 001°07'0 0.0
2015-Feb-24 11:31N 37°33' W 001°07'0 0.0
2015-Feb-24 10:31N 37°33' W 001°07'0 0.0
2015-Feb-24 09:31N 37°33' W 001°07'0 0.0
2015-Feb-24 08:31N 37°33' W 001°07'0 0.0
2015-Feb-24 07:31N 37°33' W 001°07'0 0.0
2015-Feb-24 06:31N 37°33' W 001°07'0 0.0
2015-Feb-24 05:25N 37°33' W 001°07'0 0.0
2015-Feb-24 04:31N 37°33' W 001°07'0 0.0
2015-Feb-24 03:31N 37°33' W 001°07'0 0.0
2015-Feb-24 02:18N 37°33' W 001°07'0 0.0
2015-Feb-24 01:24N 37°33' W 001°07'0 0.0
2015-Feb-23 23:31N 37°33' W 001°07'0 0.1
2015-Feb-23 22:25N 37°33' W 001°07'0 0.0
2015-Feb-23 15:30N 37°33' W 001°07'0 0.0
2015-Feb-23 13:13N 37°33' W 001°07'0 0.0
2015-Feb-23 09:19N 37°33' W 001°07'0 0.0
2015-Feb-23 08:25N 37°33' W 001°07'0 0.0
2015-Feb-23 07:31N 37°33' W 001°07'0 0.0
2015-Feb-23 06:18N 37°33' W 001°07'0 0.0
2015-Feb-23 05:12N 37°33' W 001°07'0 0.0
2015-Feb-23 04:18N 37°33' W 001°07'0 0.0
2015-Feb-23 03:30N 37°33' W 001°07'0 0.1
2015-Feb-23 02:12N 37°33' W 001°07'0 0.0
2015-Feb-23 00:19N 37°33' W 001°07'0 0.0
2015-Feb-22 23:14N 37°33' W 001°07'0 0.0
2015-Feb-22 22:08N 37°33' W 001°07'0 0.1
2015-Feb-22 21:33N 37°33' W 001°07'0 0.1
2015-Feb-22 20:30N 37°33' W 001°07'0 0.0
2015-Feb-22 19:32N 37°33' W 001°07'0 0.0
2015-Feb-22 18:33N 37°33' W 001°07'0 0.0
2015-Feb-22 17:32N 37°33' W 001°07'0 0.0
2015-Feb-22 16:33N 37°33' W 001°07'0 0.1
2015-Feb-22 15:15N 37°33' W 001°07'0 0.1
2015-Feb-22 14:26N 37°33' W 001°07'0 0.1
2015-Feb-22 13:32N 37°33' W 001°07'0 0.0
2015-Feb-22 12:33N 37°33' W 001°07'0 0.0
2015-Feb-22 11:33N 37°33' W 001°07'0 0.0
2015-Feb-22 10:33N 37°33' W 001°07'0 0.0
2015-Feb-22 09:33N 37°33' W 001°07'0 0.0
2015-Feb-22 08:33N 37°33' W 001°07'0 0.0
2015-Feb-22 07:33N 37°33' W 001°07'0 0.0
2015-Feb-22 06:32N 37°33' W 001°07'0 0.0
2015-Feb-22 05:33N 37°33' W 001°07'0 0.1
2015-Feb-22 04:33N 37°33' W 001°07'0 0.0
2015-Feb-22 03:33N 37°33' W 001°07'0 0.0
2015-Feb-22 02:28N 37°33' W 001°07'0 0.0
2015-Feb-22 01:33N 37°33' W 001°07'0 0.0
2015-Feb-22 00:24N 37°33' W 001°07'0 0.0
2015-Feb-21 23:32N 37°33' W 001°07'0 0.0
2015-Feb-21 22:33N 37°33' W 001°07'0 0.0
2015-Feb-21 21:33N 37°33' W 001°07'0 0.0
2015-Feb-21 20:32N 37°33' W 001°07'0 0.1
2015-Feb-21 19:33N 37°33' W 001°07'0 0.0
2015-Feb-21 18:33N 37°33' W 001°07'0 0.0
2015-Feb-21 17:33N 37°33' W 001°07'0 0.0
2015-Feb-21 16:32N 37°33' W 001°07'0 0.0
2015-Feb-21 15:31N 37°33' W 001°07'0 0.0
2015-Feb-21 12:16N 37°33' W 001°07'0 0.0
2015-Feb-21 11:11N 37°33' W 001°07'  
Track history (hours):
 
Tides and Currents Weather Stations Pressure Air Temp Water Temp Dewpoint Dewpoint Depression Visibility Wind Speed Wind Dir Waves Ship Positions

Apus

Last reported at 2015-Feb-27 10:33 UTC. Time now 2015-Feb-28 19:19 UTC.
Position N 37°22' W 000°43'.

Length 93 m; draft 5.5 m.

Type: Cargo ship. MMSI: 515102000.

Date/timePositionNaut miles runAvg speedWind from/ knotsBaromVisibWave heightAir tempDewpointWater temp
2015-Feb-27 10:33N 37°22' W 000°43'1111.0
2015-Feb-27 09:33N 37°29' W 000°53'11 5.4
2015-Feb-27 07:32N 37°33' W 001°06'6 6.4
2015-Feb-27 06:32N 37°36' W 000°59'0 0.0
2015-Feb-25 05:33N 37°36' W 000°59'5 4.8
2015-Feb-25 04:29N 37°33' W 001°04'2 1.4
2015-Feb-25 03:12N 37°33' W 001°07'0 0.0
2015-Feb-25 02:25N 37°33' W 001°07'0 0.1
2015-Feb-25 01:31N 37°33' W 001°07'0 0.0
2015-Feb-25 00:19N 37°33' W 001°07'0 0.1
2015-Feb-24 23:25N 37°33' W 001°07'0 0.0
2015-Feb-24 20:31N 37°33' W 001°07'0 0.0
2015-Feb-24 19:25N 37°33' W 001°07'0 0.0
2015-Feb-24 11:31N 37°33' W 001°07'0 0.0
2015-Feb-24 10:31N 37°33' W 001°07'0 0.0
2015-Feb-24 09:31N 37°33' W 001°07'0 0.0
2015-Feb-24 08:31N 37°33' W 001°07'0 0.0
2015-Feb-24 07:31N 37°33' W 001°07'0 0.0
2015-Feb-24 06:31N 37°33' W 001°07'0 0.0
2015-Feb-24 05:25N 37°33' W 001°07'0 0.0
2015-Feb-24 04:31N 37°33' W 001°07'0 0.0
2015-Feb-24 03:31N 37°33' W 001°07'0 0.0
2015-Feb-24 02:18N 37°33' W 001°07'0 0.0
2015-Feb-24 01:24N 37°33' W 001°07'0 0.0
2015-Feb-23 23:31N 37°33' W 001°07'0 0.1
2015-Feb-23 22:25N 37°33' W 001°07'0 0.0
2015-Feb-23 15:30N 37°33' W 001°07'0 0.0
2015-Feb-23 13:13N 37°33' W 001°07'0 0.0
2015-Feb-23 09:19N 37°33' W 001°07'0 0.0
2015-Feb-23 08:25N 37°33' W 001°07'0 0.0
2015-Feb-23 07:31N 37°33' W 001°07'0 0.0
2015-Feb-23 06:18N 37°33' W 001°07'0 0.0
2015-Feb-23 05:12N 37°33' W 001°07'0 0.0
2015-Feb-23 04:18N 37°33' W 001°07'0 0.0
2015-Feb-23 03:30N 37°33' W 001°07'0 0.1
2015-Feb-23 02:12N 37°33' W 001°07'0 0.0
2015-Feb-23 00:19N 37°33' W 001°07'0 0.0
2015-Feb-22 23:14N 37°33' W 001°07'0 0.0
2015-Feb-22 22:08N 37°33' W 001°07'0 0.1
2015-Feb-22 21:33N 37°33' W 001°07'0 0.1
2015-Feb-22 20:30N 37°33' W 001°07'0 0.0
2015-Feb-22 19:32N 37°33' W 001°07'0 0.0
2015-Feb-22 18:33N 37°33' W 001°07'0 0.0
2015-Feb-22 17:32N 37°33' W 001°07'0 0.0
2015-Feb-22 16:33N 37°33' W 001°07'0 0.1
2015-Feb-22 15:15N 37°33' W 001°07'0 0.1
2015-Feb-22 14:26N 37°33' W 001°07'0 0.1
2015-Feb-22 13:32N 37°33' W 001°07'0 0.0
2015-Feb-22 12:33N 37°33' W 001°07'0 0.0
2015-Feb-22 11:33N 37°33' W 001°07'0 0.0
2015-Feb-22 10:33N 37°33' W 001°07'0 0.0
2015-Feb-22 09:33N 37°33' W 001°07'0 0.0
2015-Feb-22 08:33N 37°33' W 001°07'0 0.0
2015-Feb-22 07:33N 37°33' W 001°07'0 0.0
2015-Feb-22 06:32N 37°33' W 001°07'0 0.0
2015-Feb-22 05:33N 37°33' W 001°07'0 0.1
2015-Feb-22 04:33N 37°33' W 001°07'0 0.0
2015-Feb-22 03:33N 37°33' W 001°07'0 0.0
2015-Feb-22 02:28N 37°33' W 001°07'0 0.0
2015-Feb-22 01:33N 37°33' W 001°07'0 0.0
2015-Feb-22 00:24N 37°33' W 001°07'0 0.0
2015-Feb-21 23:32N 37°33' W 001°07'0 0.0
2015-Feb-21 22:33N 37°33' W 001°07'0 0.0
2015-Feb-21 21:33N 37°33' W 001°07'0 0.0
2015-Feb-21 20:32N 37°33' W 001°07'0 0.1
2015-Feb-21 19:33N 37°33' W 001°07'0 0.0
2015-Feb-21 18:33N 37°33' W 001°07'0 0.0
2015-Feb-21 17:33N 37°33' W 001°07'0 0.0
2015-Feb-21 16:32N 37°33' W 001°07'0 0.0
2015-Feb-21 15:31N 37°33' W 001°07'0 0.0
2015-Feb-21 12:16N 37°33' W 001°07'0 0.0
2015-Feb-21 11:11N 37°33' W 001°07'  

Dump ship's entire track history